Time;durP1;ratioP1;P1;durP2;ratioP2;P2;SDS_P1;SDS_P2;PMS_P1;PMS_P2;Temp;Humidity;BMP_temperature;BMP_pressure;BME280_temperature;BME280_humidity;BME280_pressure;Samples;Min_cycle;Max_cycle;Signal;HPM_P1;HPM_P2
2022/03/16 00:00:15;;;;;;;;;;;;;;;7.00;61.50;102005.97;5053852;28;21098;-81
2022/03/16 00:02:41;;;;;;;;;;;;;;;6.85;61.18;102009.19;5055666;28;19928;-79
2022/03/16 00:05:06;;;;;;;;;;;;;;;6.96;61.22;102009.38;5053008;28;19920;-79
2022/03/16 00:10:34;;;;;;;;;;;;;;;6.95;60.90;102011.06;5060546;28;19932;-81
2022/03/16 00:13:00;;;;;;;;;;;;;;;6.94;60.44;102008.47;5050333;28;19921;-81
2022/03/16 00:15:25;;;;;;;;;;;;;;;6.80;61.29;102005.69;5062756;28;19913;-81
2022/03/16 00:17:51;;;;;;;;;;;;;;;6.95;60.36;102005.91;5057322;28;19925;-82
2022/03/16 00:20:16;;;;;;;;;;;;;;;6.60;60.87;102019.16;5052886;28;19921;-82
2022/03/16 00:22:42;;;;;;;;;;;;;;;6.87;60.24;102007.50;5057018;28;19980;-81
2022/03/16 00:25:07;;;;;;;;;;;;;;;6.88;60.99;102008.38;5068991;28;19921;-81
2022/03/16 00:27:33;;;;;;;;;;;;;;;6.87;61.14;102011.81;5063352;28;20361;-79
2022/03/16 00:29:59;;;;;;;;;;;;;;;6.86;60.85;102008.38;5062514;28;20443;-78
2022/03/16 00:32:24;;;;;;;;;;;;;;;6.64;61.30;102011.47;5056636;28;20019;-82
2022/03/16 00:34:50;;;;;;;;;;;;;;;6.70;60.99;102006.41;5051605;28;20400;-81
2022/03/16 00:37:15;;;;;;;;;;;;;;;6.78;61.62;102006.53;5058105;28;19931;-81
2022/03/16 00:39:40;;;;;;;;;;;;;;;6.70;61.50;102005.53;5054985;28;19921;-78
2022/03/16 00:42:06;;;;;;;;;;;;;;;6.70;60.53;102008.97;5055941;28;20408;-78
2022/03/16 00:44:35;;;;;;;;;;;;;;;6.76;60.75;102011.66;5035036;28;20409;-82
2022/03/16 00:47:00;;;;;;;;;;;;;;;6.58;60.49;102012.25;5048346;28;19921;-76
2022/03/16 00:49:25;;;;;;;;;;;;;;;6.69;60.34;102008.97;5063172;28;19923;-76
2022/03/16 00:51:51;;;;;;;;;;;;;;;6.72;60.65;102011.59;5055456;28;19924;-76
2022/03/16 00:54:16;;;;;;;;;;;;;;;6.66;61.48;102007.22;5041214;28;19986;-76
2022/03/16 00:56:42;;;;;;;;;;;;;;;6.61;60.86;102007.97;5058470;28;20439;-82
2022/03/16 00:59:07;;;;;;;;;;;;;;;6.84;60.69;101999.72;5059075;28;20019;-82
2022/03/16 01:01:33;;;;;;;;;;;;;;;6.81;59.78;101996.25;5055913;28;20366;-81
2022/03/16 01:03:58;;;;;;;;;;;;;;;6.59;59.90;102005.38;5053865;28;19920;-76
2022/03/16 01:06:23;;;;;;;;;;;;;;;6.76;60.66;102003.03;5033451;28;19920;-77
2022/03/16 01:08:49;;;;;;;;;;;;;;;6.68;60.70;101994.31;5058196;28;20413;-81
2022/03/16 01:11:14;;;;;;;;;;;;;;;6.57;59.61;102001.91;5050545;28;20010;-79
2022/03/16 01:13:41;;;;;;;;;;;;;;;6.44;60.69;101994.78;5055366;28;19920;-76
2022/03/16 01:16:06;;;;;;;;;;;;;;;6.72;59.88;101996.09;5043751;28;19925;-81
2022/03/16 01:18:31;;;;;;;;;;;;;;;6.58;59.63;101995.88;5056538;28;20016;-82
2022/03/16 01:20:57;;;;;;;;;;;;;;;6.64;60.58;101992.53;5051357;28;19925;-76
2022/03/16 01:23:22;;;;;;;;;;;;;;;6.54;59.80;101997.56;5054594;28;20385;-82
2022/03/16 01:25:47;;;;;;;;;;;;;;;6.70;59.96;101985.75;5052712;28;20027;-82
2022/03/16 01:28:13;;;;;;;;;;;;;;;6.61;60.66;101989.91;5047967;28;20018;-76
2022/03/16 01:30:38;;;;;;;;;;;;;;;6.77;60.43;101981.53;5049633;28;20011;-76
2022/03/16 01:33:03;;;;;;;;;;;;;;;6.68;61.47;101982.28;5056055;28;19916;-76
2022/03/16 01:35:29;;;;;;;;;;;;;;;6.68;61.24;101982.28;5050057;28;19917;-81
2022/03/16 01:37:54;;;;;;;;;;;;;;;6.89;60.44;101976.53;5057365;28;19924;-81
2022/03/16 01:40:19;;;;;;;;;;;;;;;6.89;60.33;101974.84;5062384;28;19939;-76
2022/03/16 01:42:44;;;;;;;;;;;;;;;7.03;60.03;101975.00;5058249;28;19931;-81
2022/03/16 01:45:10;;;;;;;;;;;;;;;6.69;61.46;101978.00;5051138;28;19917;-81
2022/03/16 01:47:35;;;;;;;;;;;;;;;6.80;61.01;101974.72;5047862;28;19942;-79
2022/03/16 01:50:00;;;;;;;;;;;;;;;6.61;61.26;101977.00;5048929;28;20028;-81
2022/03/16 01:52:27;;;;;;;;;;;;;;;6.73;61.05;101975.47;5060048;28;20015;-81
2022/03/16 01:54:52;;;;;;;;;;;;;;;6.66;61.05;101980.53;5056619;28;19924;-81
2022/03/16 01:57:18;;;;;;;;;;;;;;;6.77;60.25;101990.16;5053611;28;19921;-76
2022/03/16 01:59:44;;;;;;;;;;;;;;;6.56;60.96;101997.59;5040787;28;19927;-76
2022/03/16 02:02:10;;;;;;;;;;;;;;;6.63;60.12;102003.72;5051993;28;19924;-82
2022/03/16 02:04:35;;;;;;;;;;;;;;;6.46;60.54;102001.72;5053236;28;19921;-78
2022/03/16 02:07:02;;;;;;;;;;;;;;;6.66;60.21;101999.47;5052111;28;19917;-76
2022/03/16 02:09:27;;;;;;;;;;;;;;;6.58;59.59;101993.31;5053287;28;20019;-76
2022/03/16 02:11:52;;;;;;;;;;;;;;;6.61;60.83;101998.50;5049281;28;20010;-82
2022/03/16 02:14:18;;;;;;;;;;;;;;;6.29;61.17;102002.28;5055776;28;20029;-81
2022/03/16 02:16:43;;;;;;;;;;;;;;;6.41;61.05;101995.63;5050347;28;20274;-81
2022/03/16 02:19:09;;;;;;;;;;;;;;;6.40;60.74;101986.13;5053060;28;20453;-79
2022/03/16 02:21:36;;;;;;;;;;;;;;;6.52;59.89;101976.03;5046086;28;19925;-77
2022/03/16 02:24:02;;;;;;;;;;;;;;;6.63;60.70;101977.91;5057454;28;19919;-76
2022/03/16 02:26:28;;;;;;;;;;;;;;;6.74;59.89;101974.63;5051183;28;19925;-77
2022/03/16 02:28:54;;;;;;;;;;;;;;;6.45;60.25;101981.91;5038125;28;19921;-78
2022/03/16 02:31:19;;;;;;;;;;;;;;;6.56;59.44;101977.81;5052502;28;20365;-78
2022/03/16 02:33:45;;;;;;;;;;;;;;;6.48;59.37;101979.38;5053132;28;19928;-78
2022/03/16 02:36:10;;;;;;;;;;;;;;;6.48;59.95;101975.97;5053305;28;20384;-78
2022/03/16 02:38:36;;;;;;;;;;;;;;;6.69;58.48;101980.56;5057985;28;20015;-78
2022/03/16 02:41:01;;;;;;;;;;;;;;;6.62;58.77;101979.63;5058508;28;20495;-78
2022/03/16 02:43:27;;;;;;;;;;;;;;;6.41;59.02;101982.72;5057579;28;20024;-78
2022/03/16 02:45:53;;;;;;;;;;;;;;;6.58;58.73;101978.69;5065457;28;19977;-81
2022/03/16 02:48:18;;;;;;;;;;;;;;;6.42;59.07;101983.59;5058990;28;19920;-82
2022/03/16 02:50:43;;;;;;;;;;;;;;;6.51;58.43;101984.59;5058089;28;19931;-82
2022/03/16 02:53:08;;;;;;;;;;;;;;;6.37;58.85;101986.06;5053184;28;20011;-79
2022/03/16 02:55:34;;;;;;;;;;;;;;;6.37;59.25;101992.94;5051629;28;19928;-81
2022/03/16 02:58:00;;;;;;;;;;;;;;;6.31;58.28;101987.69;5058367;28;19979;-82
2022/03/16 03:00:26;;;;;;;;;;;;;;;6.26;59.26;101994.50;5055801;28;19916;-82
2022/03/16 03:02:52;;;;;;;;;;;;;;;6.40;59.04;101995.56;5038303;28;19933;-81
2022/03/16 03:05:17;;;;;;;;;;;;;;;5.93;60.52;102002.53;5024173;28;19939;-81
2022/03/16 03:07:42;;;;;;;;;;;;;;;6.06;61.62;102006.19;5052791;28;19920;-82
2022/03/16 03:10:08;;;;;;;;;;;;;;;6.37;59.95;102000.69;5051831;28;19928;-82
2022/03/16 03:12:34;;;;;;;;;;;;;;;6.51;59.89;101996.66;5055361;28;20004;-81
2022/03/16 03:15:00;;;;;;;;;;;;;;;6.49;60.22;102000.91;5057356;28;20316;-76
2022/03/16 03:17:25;;;;;;;;;;;;;;;6.42;59.91;101999.94;5058283;28;19967;-81
2022/03/16 03:19:51;;;;;;;;;;;;;;;6.50;60.28;101998.38;5077878;28;19916;-81
2022/03/16 03:22:16;;;;;;;;;;;;;;;6.44;61.10;102000.81;5054170;28;19925;-82
2022/03/16 03:24:44;;;;;;;;;;;;;;;6.47;61.00;102000.91;5059193;28;19924;-82
2022/03/16 03:27:09;;;;;;;;;;;;;;;6.60;61.45;102006.25;5067124;28;20545;-79
2022/03/16 03:29:35;;;;;;;;;;;;;;;6.60;61.49;102004.53;5055027;28;19921;-81
2022/03/16 03:32:00;;;;;;;;;;;;;;;6.53;62.82;102005.28;5031552;28;20345;-82
2022/03/16 03:34:25;;;;;;;;;;;;;;;6.52;63.91;102009.56;5054200;28;19927;-81
2022/03/16 03:36:50;;;;;;;;;;;;;;;6.63;64.08;102008.88;5058278;28;20464;-78
2022/03/16 03:39:16;;;;;;;;;;;;;;;6.58;63.99;102009.66;5038181;28;19972;-78
2022/03/16 03:41:42;;;;;;;;;;;;;;;6.72;64.08;102009.91;5052037;28;19968;-82
2022/03/16 03:44:07;;;;;;;;;;;;;;;6.54;64.29;102007.88;5055299;28;19932;-82
2022/03/16 03:46:32;;;;;;;;;;;;;;;6.68;62.69;101999.47;5040232;28;20342;-82
2022/03/16 03:48:58;;;;;;;;;;;;;;;6.65;63.10;102002.91;5053087;28;19921;-76
2022/03/16 03:51:23;;;;;;;;;;;;;;;6.55;62.36;101998.44;5056554;28;19917;-76
2022/03/16 03:53:48;;;;;;;;;;;;;;;6.70;61.42;102000.38;5051475;28;20266;-76
2022/03/16 03:56:15;;;;;;;;;;;;;;;6.70;61.47;102003.81;5053584;28;19929;-81
2022/03/16 03:58:40;;;;;;;;;;;;;;;6.74;61.26;101997.88;5053890;28;19991;-79
2022/03/16 04:01:06;;;;;;;;;;;;;;;6.66;61.38;102009.81;5051985;28;20044;-79
2022/03/16 04:03:32;;;;;;;;;;;;;;;6.65;60.95;101999.44;5054292;28;19917;-79
2022/03/16 04:05:58;;;;;;;;;;;;;;;6.67;60.87;101998.59;5052555;28;19928;-78
2022/03/16 04:08:23;;;;;;;;;;;;;;;6.61;61.40;101997.66;5041143;28;20554;-78
2022/03/16 04:10:49;;;;;;;;;;;;;;;6.46;61.33;101998.25;5054670;28;19928;-78
2022/03/16 04:13:14;;;;;;;;;;;;;;;6.60;61.07;101996.81;5054804;28;20019;-78
2022/03/16 04:15:40;;;;;;;;;;;;;;;6.67;60.61;102002.91;5057692;28;19927;-78
2022/03/16 04:18:05;;;;;;;;;;;;;;;6.46;61.26;102003.41;5039990;28;20364;-81
2022/03/16 04:20:30;;;;;;;;;;;;;;;6.51;61.76;102004.41;5038890;28;20470;-81
2022/03/16 04:22:55;;;;;;;;;;;;;;;6.71;61.08;102002.09;5034510;28;20385;-81
2022/03/16 04:25:21;;;;;;;;;;;;;;;6.59;61.22;102002.81;5033919;28;20447;-76
2022/03/16 04:27:46;;;;;;;;;;;;;;;6.58;60.98;102001.06;5025719;28;19959;-78
2022/03/16 04:30:12;;;;;;;;;;;;;;;6.56;61.45;101995.00;5037906;28;20590;-78
2022/03/16 04:32:37;;;;;;;;;;;;;;;6.57;61.26;101997.59;5056303;28;19921;-78
2022/03/16 04:35:03;;;;;;;;;;;;;;;6.61;61.15;102008.84;5054194;28;19920;-79
2022/03/16 04:37:28;;;;;;;;;;;;;;;6.35;61.95;102002.38;5041443;28;19921;-79
2022/03/16 04:39:53;;;;;;;;;;;;;;;6.64;60.05;102002.84;5046469;28;19974;-79
2022/03/16 04:42:19;;;;;;;;;;;;;;;6.39;61.01;102001.59;5050484;28;20345;-76
2022/03/16 04:44:44;;;;;;;;;;;;;;;6.58;60.34;102011.38;5039898;28;19994;-76
2022/03/16 04:47:09;;;;;;;;;;;;;;;6.69;59.98;101998.66;5040686;28;20397;-81
2022/03/16 04:49:35;;;;;;;;;;;;;;;6.63;59.83;102006.31;5043545;28;19928;-76
2022/03/16 04:52:00;;;;;;;;;;;;;;;6.50;59.94;101997.50;5067763;28;19920;-78
2022/03/16 04:54:25;;;;;;;;;;;;;;;6.43;60.02;102009.41;5061256;28;19924;-78
2022/03/16 04:56:50;;;;;;;;;;;;;;;6.71;59.81;102004.69;5040751;28;20022;-76
2022/03/16 04:59:17;;;;;;;;;;;;;;;6.53;59.23;102003.59;5041641;28;19970;-81
2022/03/16 05:01:42;;;;;;;;;;;;;;;6.31;59.56;102005.75;5040686;28;19969;-81
2022/03/16 05:04:07;;;;;;;;;;;;;;;6.35;59.69;102004.97;5045423;28;20003;-82
2022/03/16 05:06:33;;;;;;;;;;;;;;;6.44;60.27;102005.13;5072089;28;19920;-79
2022/03/16 05:08:58;;;;;;;;;;;;;;;6.62;59.25;102002.84;5057731;28;19958;-78
2022/03/16 05:11:23;;;;;;;;;;;;;;;6.52;59.90;102001.84;5053802;28;19925;-78
2022/03/16 05:13:49;;;;;;;;;;;;;;;6.38;60.46;102008.47;5044157;28;20448;-76
2022/03/16 05:16:14;;;;;;;;;;;;;;;6.51;59.68;102007.81;5042001;28;20348;-76
2022/03/16 05:18:40;;;;;;;;;;;;;;;6.60;60.07;102003.69;5048570;28;19963;-81
2022/03/16 05:21:08;;;;;;;;;;;;;;;6.35;59.82;102007.53;5055807;28;20357;-78
2022/03/16 05:23:33;;;;;;;;;;;;;;;6.45;59.41;102012.03;5060491;28;19999;-78
2022/03/16 05:25:58;;;;;;;;;;;;;;;6.36;60.22;102015.34;5059836;28;20023;-78
2022/03/16 05:28:24;;;;;;;;;;;;;;;6.51;60.63;102017.31;5040504;28;19928;-81
2022/03/16 05:30:49;;;;;;;;;;;;;;;6.65;60.42;102018.38;5031095;28;19967;-81
2022/03/16 05:33:14;;;;;;;;;;;;;;;6.67;59.70;102023.56;5045147;28;19920;-81
2022/03/16 05:35:41;;;;;;;;;;;;;;;6.47;60.92;102023.22;5067443;28;19924;-81
2022/03/16 05:38:08;;;;;;;;;;;;;;;6.44;60.87;102018.88;5040790;28;19928;-81
2022/03/16 05:40:33;;;;;;;;;;;;;;;6.57;60.70;102020.84;5042462;28;19917;-81
2022/03/16 05:42:58;;;;;;;;;;;;;;;6.64;60.65;102016.63;5043775;28;19924;-81
2022/03/16 05:45:24;;;;;;;;;;;;;;;6.76;59.68;102027.16;5071068;28;19969;-76
2022/03/16 05:47:49;;;;;;;;;;;;;;;6.46;61.53;102024.06;5038631;28;19963;-81
2022/03/16 05:50:16;;;;;;;;;;;;;;;6.73;61.02;102024.53;5068443;28;20288;-76
2022/03/16 05:52:43;;;;;;;;;;;;;;;6.83;60.89;102029.00;5036736;28;19963;-81
2022/03/16 05:55:09;;;;;;;;;;;;;;;6.84;60.06;102028.13;5031456;28;19970;-81
2022/03/16 05:57:37;;;;;;;;;;;;;;;6.68;60.59;102030.47;5062948;28;19920;-81
2022/03/16 06:00:03;;;;;;;;;;;;;;;6.61;60.87;102026.03;5033947;28;19913;-79
2022/03/16 06:02:28;;;;;;;;;;;;;;;6.74;61.36;102023.69;5053463;28;20427;-81
2022/03/16 06:04:53;;;;;;;;;;;;;;;6.60;60.73;102030.38;5050210;28;19921;-81
2022/03/16 06:07:19;;;;;;;;;;;;;;;6.61;60.77;102032.09;5049658;28;20328;-81
2022/03/16 06:09:44;;;;;;;;;;;;;;;6.53;60.76;102028.53;5039091;28;19924;-79
2022/03/16 06:12:10;;;;;;;;;;;;;;;6.58;60.86;102034.63;5054286;28;19921;-76
2022/03/16 06:14:36;;;;;;;;;;;;;;;6.62;60.32;102040.69;5031836;28;20055;-81
2022/03/16 06:17:01;;;;;;;;;;;;;;;6.54;60.37;102035.44;5035006;28;19920;-81
2022/03/16 06:19:26;;;;;;;;;;;;;;;6.55;61.09;102040.59;5039025;28;19944;-82
2022/03/16 06:21:51;;;;;;;;;;;;;;;6.46;60.69;102036.97;5068254;28;19927;-78
2022/03/16 06:24:17;;;;;;;;;;;;;;;6.51;60.60;102046.56;5041752;28;20259;-81
2022/03/16 06:26:43;;;;;;;;;;;;;;;6.65;60.17;102049.38;5051237;28;20431;-76
2022/03/16 06:29:09;;;;;;;;;;;;;;;6.44;60.68;102056.72;5038874;28;19921;-76
2022/03/16 06:31:34;;;;;;;;;;;;;;;6.37;60.64;102049.72;5031702;28;19995;-76
2022/03/16 06:34:00;;;;;;;;;;;;;;;6.46;61.26;102040.44;5058375;28;20063;-76
2022/03/16 06:36:28;;;;;;;;;;;;;;;6.52;61.12;102043.13;5059770;28;20384;-76
2022/03/16 06:38:54;;;;;;;;;;;;;;;6.54;60.88;102041.44;5048348;28;19976;-77
2022/03/16 06:41:20;;;;;;;;;;;;;;;6.48;61.09;102036.19;5036181;28;20011;-76
2022/03/16 06:43:48;;;;;;;;;;;;;;;6.63;60.74;102045.03;5045524;28;20292;-76
2022/03/16 06:46:13;;;;;;;;;;;;;;;6.63;60.91;102045.03;5038534;28;19956;-76
2022/03/16 06:48:39;;;;;;;;;;;;;;;6.64;60.88;102036.41;5045781;28;19972;-77
2022/03/16 06:51:05;;;;;;;;;;;;;;;6.92;60.29;102046.31;5054356;28;19924;-76
2022/03/16 06:53:30;;;;;;;;;;;;;;;6.72;61.22;102052.91;5060175;28;20374;-81
2022/03/16 06:55:56;;;;;;;;;;;;;;;6.77;61.82;102049.56;5054823;28;19925;-81
2022/03/16 06:58:21;;;;;;;;;;;;;;;6.46;62.92;102055.91;5037181;28;19921;-78
2022/03/16 07:00:47;;;;;;;;;;;;;;;6.61;62.09;102042.41;5061408;28;19920;-77
2022/03/16 07:03:12;;;;;;;;;;;;;;;6.77;61.12;102043.50;5072000;28;19924;-77
2022/03/16 07:05:39;;;;;;;;;;;;;;;6.48;62.40;102035.34;5069210;28;19925;-77
2022/03/16 07:08:11;;;;;;;;;;;;;;;6.67;62.81;102031.31;5064564;28;20007;-80
2022/03/16 07:10:38;;;;;;;;;;;;;;;6.58;62.49;102030.31;5061258;28;19959;-81
2022/03/16 07:13:03;;;;;;;;;;;;;;;6.65;61.63;102036.47;5050064;28;19967;-80
2022/03/16 07:15:30;;;;;;;;;;;;;;;6.83;61.18;102030.69;5050035;28;20383;-80
2022/03/16 07:17:55;;;;;;;;;;;;;;;6.80;62.57;102028.94;5049019;28;20016;-80
2022/03/16 07:20:21;;;;;;;;;;;;;;;6.65;62.50;102025.25;5034696;28;20071;-79
2022/03/16 07:22:59;;;;;;;;;;;;;;;6.72;62.68;102024.50;5048277;28;19925;-79
2022/03/16 07:25:24;;;;;;;;;;;;;;;6.80;62.52;102026.34;5037877;28;19924;-77
2022/03/16 07:27:50;;;;;;;;;;;;;;;6.97;62.24;102021.41;5044472;28;19920;-79
2022/03/16 07:30:15;;;;;;;;;;;;;;;6.95;62.54;102023.13;5048558;28;19917;-79
2022/03/16 07:32:40;;;;;;;;;;;;;;;7.04;61.74;102034.47;5049900;28;19963;-82
2022/03/16 07:35:07;;;;;;;;;;;;;;;7.08;61.40;102038.78;5058253;28;19975;-81
2022/03/16 07:37:34;;;;;;;;;;;;;;;6.89;62.89;102042.00;5053829;28;20373;-82
2022/03/16 07:39:59;;;;;;;;;;;;;;;6.96;62.30;102042.94;5057640;28;19924;-79
2022/03/16 07:42:25;;;;;;;;;;;;;;;6.87;63.33;102054.00;5051707;28;19925;-79
2022/03/16 07:44:51;;;;;;;;;;;;;;;6.98;63.12;102043.84;5065967;28;19920;-81
2022/03/16 07:47:17;;;;;;;;;;;;;;;7.01;63.84;102044.75;5050480;28;19921;-82
2022/03/16 07:49:42;;;;;;;;;;;;;;;7.20;62.99;102050.16;5036410;28;19967;-81
2022/03/16 07:52:07;;;;;;;;;;;;;;;7.31;62.65;102048.59;5023232;28;19964;-80
2022/03/16 07:54:33;;;;;;;;;;;;;;;7.26;63.07;102050.22;5053651;28;19947;-77
2022/03/16 07:56:58;;;;;;;;;;;;;;;7.36;63.43;102052.97;5032546;28;19921;-81
2022/03/16 07:59:23;;;;;;;;;;;;;;;7.29;64.03;102050.25;5053681;28;20099;-82
2022/03/16 08:01:49;;;;;;;;;;;;;;;7.26;64.41;102048.50;5033118;28;19962;-80
2022/03/16 08:04:15;;;;;;;;;;;;;;;7.34;63.96;102036.56;5059505;28;19936;-76
2022/03/16 08:06:41;;;;;;;;;;;;;;;7.31;64.03;102043.41;5055700;28;19916;-77
2022/03/16 08:09:06;;;;;;;;;;;;;;;7.43;64.12;102051.31;5049267;28;19921;-77
2022/03/16 08:11:31;;;;;;;;;;;;;;;7.48;64.37;102053.13;5028631;28;19927;-76
2022/03/16 08:13:56;;;;;;;;;;;;;;;7.70;63.36;102049.91;5058426;28;20274;-82
2022/03/16 08:16:23;;;;;;;;;;;;;;;7.75;63.69;102049.09;5046521;28;19932;-76
2022/03/16 08:18:48;;;;;;;;;;;;;;;7.77;63.45;102039.63;5049974;28;19928;-80
2022/03/16 08:21:14;;;;;;;;;;;;;;;7.78;64.37;102029.31;5054553;28;19925;-81
2022/03/16 08:23:39;;;;;;;;;;;;;;;7.80;64.52;102037.06;5058241;28;20551;-81
2022/03/16 08:26:04;;;;;;;;;;;;;;;7.82;64.29;102025.03;5059331;28;19955;-81
2022/03/16 08:28:30;;;;;;;;;;;;;;;7.87;64.64;102023.38;5060326;28;19999;-81
2022/03/16 08:30:55;;;;;;;;;;;;;;;7.78;65.20;102016.38;5038396;28;19925;-81
2022/03/16 08:33:23;;;;;;;;;;;;;;;8.03;64.70;102018.34;5047985;28;19916;-81
2022/03/16 08:35:48;;;;;;;;;;;;;;;8.04;64.87;102021.81;5055507;28;19917;-82
2022/03/16 08:38:14;;;;;;;;;;;;;;;8.03;64.84;102022.63;5068777;28;19925;-81
2022/03/16 08:40:39;;;;;;;;;;;;;;;8.10;64.81;102020.13;5038980;28;19921;-79
2022/03/16 08:43:04;;;;;;;;;;;;;;;8.30;63.30;102017.72;5058984;28;19932;-77
2022/03/16 08:45:31;;;;;;;;;;;;;;;8.26;62.95;102015.97;5053719;28;19920;-77
2022/03/16 08:47:56;;;;;;;;;;;;;;;8.42;62.89;102004.03;5046642;28;19921;-77
2022/03/16 08:50:22;;;;;;;;;;;;;;;8.51;62.69;102004.09;5059720;28;19921;-77
2022/03/16 08:52:47;;;;;;;;;;;;;;;8.38;62.63;101994.53;5064991;28;19917;-81
2022/03/16 08:55:15;;;;;;;;;;;;;;;8.64;61.99;101996.44;5039077;28;19925;-81
2022/03/16 08:57:43;;;;;;;;;;;;;;;8.49;62.69;101998.91;5037321;28;20362;-80
2022/03/16 09:00:08;;;;;;;;;;;;;;;8.54;62.44;102010.16;5041387;28;19920;-79
2022/03/16 09:02:34;;;;;;;;;;;;;;;8.45;62.83;102014.41;5039844;28;20631;-79
2022/03/16 09:04:59;;;;;;;;;;;;;;;8.51;61.86;102009.28;5037262;28;19974;-81
2022/03/16 09:07:24;;;;;;;;;;;;;;;8.70;61.58;102006.84;5051538;28;20336;-81
2022/03/16 09:09:49;;;;;;;;;;;;;;;8.80;60.90;102000.84;5054604;28;20350;-77
2022/03/16 09:12:15;;;;;;;;;;;;;;;9.07;59.70;101996.66;5057046;28;19928;-77
2022/03/16 09:14:41;;;;;;;;;;;;;;;8.78;60.18;102006.88;5039351;28;19924;-79
2022/03/16 09:17:07;;;;;;;;;;;;;;;8.69;60.90;102004.22;5056035;28;19954;-76
2022/03/16 09:19:33;;;;;;;;;;;;;;;8.76;61.04;102004.28;5056986;28;20372;-79
2022/03/16 09:22:00;;;;;;;;;;;;;;;8.95;60.39;102005.22;5056181;28;20069;-82
2022/03/16 09:24:25;;;;;;;;;;;;;;;9.06;60.16;102007.91;5048478;28;19986;-76
2022/03/16 09:26:51;;;;;;;;;;;;;;;9.09;60.25;102000.13;5032923;28;19924;-76
2022/03/16 09:29:18;;;;;;;;;;;;;;;9.09;59.71;101987.19;5035576;28;20046;-82
2022/03/16 09:31:44;;;;;;;;;;;;;;;9.33;58.96;102003.69;5048163;28;19927;-82
2022/03/16 09:34:10;;;;;;;;;;;;;;;9.25;59.07;102013.16;5047795;28;20551;-80
2022/03/16 09:36:37;;;;;;;;;;;;;;;9.47;58.43;102015.84;5052370;28;19924;-81
2022/03/16 09:39:02;;;;;;;;;;;;;;;9.39;58.11;102004.59;5039306;28;19923;-77
2022/03/16 09:41:28;;;;;;;;;;;;;;;9.43;58.45;102001.13;5051595;28;20608;-76
2022/03/16 09:43:53;;;;;;;;;;;;;;;9.40;58.27;102001.09;5053251;28;19928;-82
2022/03/16 09:46:25;;;;;;;;;;;;;;;9.39;58.55;102007.19;5049297;28;19964;-82
2022/03/16 09:48:50;;;;;;;;;;;;;;;9.55;57.53;101996.84;5031903;28;19917;-82
2022/03/16 09:51:16;;;;;;;;;;;;;;;9.44;58.77;101995.09;5050771;28;19923;-82
2022/03/16 09:53:42;;;;;;;;;;;;;;;9.65;57.99;101996.03;5063087;28;19929;-82
2022/03/16 09:56:09;;;;;;;;;;;;;;;9.64;57.82;101989.09;5054021;28;19920;-80
2022/03/16 09:58:34;;;;;;;;;;;;;;;9.35;58.52;101990.75;5056223;28;19931;-80
2022/03/16 10:01:00;;;;;;;;;;;;;;;9.33;59.58;102001.09;5043078;28;19921;-80
2022/03/16 10:03:28;;;;;;;;;;;;;;;9.49;58.96;101991.63;5057130;28;19925;-78
2022/03/16 10:05:55;;;;;;;;;;;;;;;9.65;57.70;101982.19;5049103;28;19921;-79
2022/03/16 10:08:27;;;;;;;;;;;;;;;9.87;56.96;101989.13;5049172;28;19952;-82
2022/03/16 10:13:48;;;;;;;;;;;;;;;10.09;55.90;101988.31;5052879;28;19927;-81
2022/03/16 10:16:13;;;;;;;;;;;;;;;9.97;56.85;101988.31;5045612;28;19948;-81
2022/03/16 10:18:38;;;;;;;;;;;;;;;9.90;56.49;101981.38;5051215;28;20293;-81
2022/03/16 10:21:04;;;;;;;;;;;;;;;9.77;57.36;101990.00;5053259;28;20020;-81
2022/03/16 10:23:30;;;;;;;;;;;;;;;10.01;56.91;101994.38;5041391;28;20287;-82
2022/03/16 10:25:58;;;;;;;;;;;;;;;10.14;56.44;101989.19;5046514;28;20465;-76
2022/03/16 10:28:24;;;;;;;;;;;;;;;10.11;56.76;101978.78;5047283;28;19964;-77
2022/03/16 10:30:52;;;;;;;;;;;;;;;10.11;56.63;101978.78;5045981;28;19925;-79
2022/03/16 10:33:19;;;;;;;;;;;;;;;10.15;56.70;101977.94;5051817;28;19912;-79
2022/03/16 10:36:16;;;;;;;;;;;;;;;10.19;56.62;101978.81;5035196;28;19951;-79
2022/03/16 10:38:46;;;;;;;;;;;;;;;10.10;56.73;101974.47;5019912;28;19971;-76
2022/03/16 10:47:00;;;;;;;;;;;;;;;10.08;57.17;101972.75;5043487;28;19966;-80
2022/03/16 10:49:30;;;;;;;;;;;;;;;9.84;57.97;101976.13;5055421;28;19924;-81
2022/03/16 10:52:05;;;;;;;;;;;;;;;9.98;57.55;101978.78;5046744;28;19977;-81
2022/03/16 10:54:31;;;;;;;;;;;;;;;9.93;58.04;101981.38;5052725;28;19986;-76
2022/03/16 10:56:57;;;;;;;;;;;;;;;10.17;56.71;101978.78;5062630;28;20381;-76
2022/03/16 10:59:26;;;;;;;;;;;;;;;10.06;56.83;101972.75;5062749;28;19952;-82
2022/03/16 11:01:52;;;;;;;;;;;;;;;10.05;57.13;101962.38;5063281;28;19975;-80
2022/03/16 11:04:22;;;;;;;;;;;;;;;10.10;57.03;101955.44;5063065;28;19956;-81
2022/03/16 11:06:48;;;;;;;;;;;;;;;10.30;56.22;101954.56;5038477;28;19921;-81
2022/03/16 11:09:15;;;;;;;;;;;;;;;10.21;56.31;101959.75;5052779;28;19932;-81
2022/03/16 11:14:27;;;;;;;;;;;;;;;10.10;57.12;101952.84;5049970;28;19985;-79
2022/03/16 11:16:53;;;;;;;;;;;;;;;10.21;57.46;101951.09;5053159;28;19929;-76
2022/03/16 11:19:19;;;;;;;;;;;;;;;10.03;57.75;101938.13;5053079;28;19921;-76
2022/03/16 11:22:14;;;;;;;;;;;;;;;10.12;58.19;101933.78;5061447;28;19925;-76
2022/03/16 11:24:58;;;;;;;;;;;;;;;10.29;56.62;101932.03;5017917;28;19913;-81
2022/03/16 11:27:42;;;;;;;;;;;;;;;10.32;56.61;101924.25;5049232;28;19916;-81
2022/03/16 11:30:07;;;;;;;;;;;;;;;10.30;57.01;101936.38;5051217;28;19931;-82
2022/03/16 11:32:40;;;;;;;;;;;;;;;10.17;58.05;101933.78;5048171;28;19925;-82
2022/03/16 11:35:10;;;;;;;;;;;;;;;10.14;57.66;101926.00;5033624;28;19928;-81
2022/03/16 11:37:40;;;;;;;;;;;;;;;10.28;57.31;101922.53;5050629;28;20459;-76
2022/03/16 11:40:09;;;;;;;;;;;;;;;10.33;57.60;101915.59;5051811;28;20550;-76
2022/03/16 11:42:35;;;;;;;;;;;;;;;10.36;57.93;101919.91;5047279;28;20027;-81
2022/03/16 11:45:29;;;;;;;;;;;;;;;10.28;58.14;101909.56;5064812;28;20011;-79
2022/03/16 11:47:55;;;;;;;;;;;;;;;10.30;56.56;101907.81;5031487;28;20416;-81
2022/03/16 11:50:21;;;;;;;;;;;;;;;10.52;57.05;101897.38;5030875;28;19929;-79
2022/03/16 11:53:00;;;;;;;;;;;;;;;10.55;56.74;101899.97;5045228;28;19971;-79
2022/03/16 11:55:37;;;;;;;;;;;;;;;10.72;56.18;101898.16;5054727;28;19927;-82
2022/03/16 11:58:14;;;;;;;;;;;;;;;10.63;56.64;101896.47;5042778;28;19928;-79
2022/03/16 12:00:40;;;;;;;;;;;;;;;10.71;55.86;101889.50;5032098;28;19929;-77
2022/03/16 12:03:05;;;;;;;;;;;;;;;10.66;56.39;101882.59;5058368;28;20414;-76
2022/03/16 12:05:51;;;;;;;;;;;;;;;10.68;56.86;101886.03;5062544;28;19924;-77
2022/03/16 12:08:16;;;;;;;;;;;;;;;10.78;56.46;101886.03;5055129;28;20014;-81
2022/03/16 12:10:45;;;;;;;;;;;;;;;10.64;56.09;101885.19;5060209;28;20393;-82
2022/03/16 12:13:12;;;;;;;;;;;;;;;10.79;55.54;101886.91;5051686;28;20016;-82
2022/03/16 12:15:37;;;;;;;;;;;;;;;10.79;55.73;101874.72;5059465;28;20395;-81
2022/03/16 12:18:07;;;;;;;;;;;;;;;10.74;56.21;101883.44;5051469;28;20010;-82
2022/03/16 12:20:34;;;;;;;;;;;;;;;10.81;55.67;101882.53;5058116;28;19925;-82
2022/03/16 12:23:10;;;;;;;;;;;;;;;10.77;55.99;101880.81;5054131;28;19985;-81
2022/03/16 12:25:35;;;;;;;;;;;;;;;10.82;56.18;101866.94;5056661;28;19928;-81
2022/03/16 12:30:59;;;;;;;;;;;;;;;10.90;56.63;101854.78;5056983;28;20562;-79
2022/03/16 12:33:32;;;;;;;;;;;;;;;10.89;55.23;101855.63;5062771;28;19916;-79
2022/03/16 12:36:02;;;;;;;;;;;;;;;10.94;55.41;101859.06;5054104;28;19924;-79
2022/03/16 12:38:31;;;;;;;;;;;;;;;10.95;54.88;101859.94;5057949;28;20420;-81
2022/03/16 12:43:45;;;;;;;;;;;;;;;10.99;54.74;101853.88;5060594;28;19975;-81
2022/03/16 12:46:23;;;;;;;;;;;;;;;10.99;55.09;101851.25;5051474;28;19952;-81
2022/03/16 12:48:49;;;;;;;;;;;;;;;11.05;55.09;101843.44;5047418;28;19960;-80
2022/03/16 12:51:32;;;;;;;;;;;;;;;11.07;54.87;101838.19;5055822;28;20305;-80
2022/03/16 12:53:58;;;;;;;;;;;;;;;10.99;56.22;101835.66;5059482;28;19943;-79
2022/03/16 12:56:23;;;;;;;;;;;;;;;11.03;55.06;101830.41;5055309;28;22055;-76
2022/03/16 12:58:52;;;;;;;;;;;;;;;11.09;55.35;101824.31;5059469;28;20429;-81
2022/03/16 13:01:18;;;;;;;;;;;;;;;11.04;54.90;101823.50;5054509;28;20059;-81